sensor_id;sensor_type;location;lat;lon;timestamp;P1;durP1;ratioP1;P2;durP2;ratioP2
64550;SDS011;50945;44.472;-123.352;2023-08-07T00:00:42;0.63;;;0.63;;
64550;SDS011;50945;44.472;-123.352;2023-08-07T00:03:08;1.60;;;0.70;;
64550;SDS011;50945;44.472;-123.352;2023-08-07T00:05:36;0.90;;;0.90;;
64550;SDS011;50945;44.472;-123.352;2023-08-07T00:08:02;1.05;;;0.95;;
64550;SDS011;50945;44.472;-123.352;2023-08-07T00:10:29;1.60;;;0.88;;
64550;SDS011;50945;44.472;-123.352;2023-08-07T00:12:55;0.95;;;0.82;;
64550;SDS011;50945;44.472;-123.352;2023-08-07T00:15:22;0.63;;;0.63;;
64550;SDS011;50945;44.472;-123.352;2023-08-07T00:17:48;0.90;;;0.90;;
64550;SDS011;50945;44.472;-123.352;2023-08-07T00:20:14;0.98;;;0.90;;
64550;SDS011;50945;44.472;-123.352;2023-08-07T00:22:40;2.60;;;1.00;;
64550;SDS011;50945;44.472;-123.352;2023-08-07T00:25:06;0.95;;;0.95;;
64550;SDS011;50945;44.472;-123.352;2023-08-07T00:27:33;0.70;;;0.70;;
64550;SDS011;50945;44.472;-123.352;2023-08-07T00:29:59;1.08;;;1.08;;
64550;SDS011;50945;44.472;-123.352;2023-08-07T00:32:28;1.00;;;0.95;;
64550;SDS011;50945;44.472;-123.352;2023-08-07T00:34:54;0.80;;;0.80;;
64550;SDS011;50945;44.472;-123.352;2023-08-07T00:37:20;1.05;;;1.05;;
64550;SDS011;50945;44.472;-123.352;2023-08-07T00:39:46;0.88;;;0.88;;
64550;SDS011;50945;44.472;-123.352;2023-08-07T00:42:13;1.60;;;0.90;;
64550;SDS011;50945;44.472;-123.352;2023-08-07T00:44:39;1.17;;;1.10;;
64550;SDS011;50945;44.472;-123.352;2023-08-07T00:47:05;1.33;;;1.25;;
64550;SDS011;50945;44.472;-123.352;2023-08-07T00:49:32;1.00;;;1.00;;
64550;SDS011;50945;44.472;-123.352;2023-08-07T00:51:59;0.90;;;0.90;;
64550;SDS011;50945;44.472;-123.352;2023-08-07T00:54:25;2.45;;;1.60;;
64550;SDS011;50945;44.472;-123.352;2023-08-07T00:56:51;1.33;;;0.90;;
64550;SDS011;50945;44.472;-123.352;2023-08-07T00:59:18;0.60;;;0.60;;
64550;SDS011;50945;44.472;-123.352;2023-08-07T01:01:45;0.90;;;0.70;;
64550;SDS011;50945;44.472;-123.352;2023-08-07T01:04:11;0.80;;;0.80;;
64550;SDS011;50945;44.472;-123.352;2023-08-07T01:06:37;0.95;;;0.95;;
64550;SDS011;50945;44.472;-123.352;2023-08-07T01:09:03;1.35;;;0.90;;
64550;SDS011;50945;44.472;-123.352;2023-08-07T01:11:39;3.33;;;1.08;;
64550;SDS011;50945;44.472;-123.352;2023-08-07T01:14:33;2.85;;;1.17;;
64550;SDS011;50945;44.472;-123.352;2023-08-07T01:17:10;2.85;;;0.88;;
64550;SDS011;50945;44.472;-123.352;2023-08-07T01:19:39;2.95;;;1.23;;
64550;SDS011;50945;44.472;-123.352;2023-08-07T01:22:10;2.22;;;0.88;;
64550;SDS011;50945;44.472;-123.352;2023-08-07T01:24:38;1.05;;;0.80;;
64550;SDS011;50945;44.472;-123.352;2023-08-07T01:35:22;2.10;;;1.15;;
64550;SDS011;50945;44.472;-123.352;2023-08-07T01:37:52;0.60;;;0.60;;
64550;SDS011;50945;44.472;-123.352;2023-08-07T01:40:20;1.05;;;0.68;;
64550;SDS011;50945;44.472;-123.352;2023-08-07T01:42:47;3.97;;;0.95;;
64550;SDS011;50945;44.472;-123.352;2023-08-07T01:45:14;0.65;;;0.60;;
64550;SDS011;50945;44.472;-123.352;2023-08-07T01:47:47;0.88;;;0.88;;
64550;SDS011;50945;44.472;-123.352;2023-08-07T01:50:13;1.13;;;0.98;;
64550;SDS011;50945;44.472;-123.352;2023-08-07T01:52:39;2.38;;;0.90;;
64550;SDS011;50945;44.472;-123.352;2023-08-07T01:55:05;3.08;;;0.80;;
64550;SDS011;50945;44.472;-123.352;2023-08-07T01:57:31;0.80;;;0.80;;
64550;SDS011;50945;44.472;-123.352;2023-08-07T01:59:58;0.80;;;0.80;;
64550;SDS011;50945;44.472;-123.352;2023-08-07T02:02:24;1.73;;;0.77;;
64550;SDS011;50945;44.472;-123.352;2023-08-07T02:07:16;1.65;;;0.77;;
64550;SDS011;50945;44.472;-123.352;2023-08-07T02:09:42;3.00;;;0.70;;
64550;SDS011;50945;44.472;-123.352;2023-08-07T02:12:08;1.85;;;0.77;;
64550;SDS011;50945;44.472;-123.352;2023-08-07T02:14:34;0.50;;;0.50;;
64550;SDS011;50945;44.472;-123.352;2023-08-07T02:19:26;0.82;;;0.82;;
64550;SDS011;50945;44.472;-123.352;2023-08-07T02:21:52;0.65;;;0.65;;
64550;SDS011;50945;44.472;-123.352;2023-08-07T02:24:19;0.73;;;0.73;;
64550;SDS011;50945;44.472;-123.352;2023-08-07T02:26:45;0.60;;;0.60;;
64550;SDS011;50945;44.472;-123.352;2023-08-07T02:29:12;0.60;;;0.60;;
64550;SDS011;50945;44.472;-123.352;2023-08-07T02:34:03;0.95;;;0.80;;
64550;SDS011;50945;44.472;-123.352;2023-08-07T02:36:30;1.25;;;0.75;;
64550;SDS011;50945;44.472;-123.352;2023-08-07T02:38:56;0.50;;;0.50;;
64550;SDS011;50945;44.472;-123.352;2023-08-07T02:43:48;0.57;;;0.57;;
64550;SDS011;50945;44.472;-123.352;2023-08-07T02:46:14;1.42;;;0.90;;
64550;SDS011;50945;44.472;-123.352;2023-08-07T02:51:06;0.75;;;0.70;;
64550;SDS011;50945;44.472;-123.352;2023-08-07T02:55:58;0.57;;;0.50;;
64550;SDS011;50945;44.472;-123.352;2023-08-07T03:00:50;1.60;;;0.40;;
64550;SDS011;50945;44.472;-123.352;2023-08-07T03:03:16;0.45;;;0.45;;
64550;SDS011;50945;44.472;-123.352;2023-08-07T03:05:51;0.65;;;0.60;;
64550;SDS011;50945;44.472;-123.352;2023-08-07T03:08:17;2.08;;;0.68;;
64550;SDS011;50945;44.472;-123.352;2023-08-07T03:13:21;0.55;;;0.43;;
64550;SDS011;50945;44.472;-123.352;2023-08-07T03:15:48;0.90;;;0.63;;
64550;SDS011;50945;44.472;-123.352;2023-08-07T03:18:16;0.82;;;0.82;;
64550;SDS011;50945;44.472;-123.352;2023-08-07T03:20:43;2.20;;;0.60;;
64550;SDS011;50945;44.472;-123.352;2023-08-07T03:23:09;0.43;;;0.43;;
64550;SDS011;50945;44.472;-123.352;2023-08-07T03:25:36;0.57;;;0.57;;
64550;SDS011;50945;44.472;-123.352;2023-08-07T03:28:02;0.47;;;0.47;;
64550;SDS011;50945;44.472;-123.352;2023-08-07T03:30:29;0.55;;;0.52;;
64550;SDS011;50945;44.472;-123.352;2023-08-07T03:32:55;0.50;;;0.50;;
64550;SDS011;50945;44.472;-123.352;2023-08-07T03:37:47;0.70;;;0.70;;
64550;SDS011;50945;44.472;-123.352;2023-08-07T03:42:38;0.40;;;0.40;;
64550;SDS011;50945;44.472;-123.352;2023-08-07T03:45:05;0.73;;;0.73;;
64550;SDS011;50945;44.472;-123.352;2023-08-07T03:47:31;1.10;;;0.50;;
64550;SDS011;50945;44.472;-123.352;2023-08-07T03:49:58;0.85;;;0.45;;
64550;SDS011;50945;44.472;-123.352;2023-08-07T03:52:24;3.25;;;0.60;;
64550;SDS011;50945;44.472;-123.352;2023-08-07T03:57:16;0.68;;;0.65;;
64550;SDS011;50945;44.472;-123.352;2023-08-07T03:59:42;0.90;;;0.90;;
64550;SDS011;50945;44.472;-123.352;2023-08-07T04:02:08;0.85;;;0.40;;
64550;SDS011;50945;44.472;-123.352;2023-08-07T04:04:35;1.05;;;0.38;;
64550;SDS011;50945;44.472;-123.352;2023-08-07T04:07:02;1.30;;;0.60;;
64550;SDS011;50945;44.472;-123.352;2023-08-07T04:11:54;0.90;;;0.45;;
64550;SDS011;50945;44.472;-123.352;2023-08-07T04:14:20;0.35;;;0.35;;
64550;SDS011;50945;44.472;-123.352;2023-08-07T04:16:46;1.75;;;1.00;;
64550;SDS011;50945;44.472;-123.352;2023-08-07T04:19:13;0.68;;;0.68;;
64550;SDS011;50945;44.472;-123.352;2023-08-07T04:21:39;1.10;;;0.70;;
64550;SDS011;50945;44.472;-123.352;2023-08-07T04:26:35;2.17;;;0.55;;
64550;SDS011;50945;44.472;-123.352;2023-08-07T04:29:05;3.05;;;0.57;;
64550;SDS011;50945;44.472;-123.352;2023-08-07T04:31:32;0.70;;;0.70;;
64550;SDS011;50945;44.472;-123.352;2023-08-07T04:33:59;0.60;;;0.60;;
64550;SDS011;50945;44.472;-123.352;2023-08-07T04:38:51;0.65;;;0.60;;
64550;SDS011;50945;44.472;-123.352;2023-08-07T04:43:43;1.50;;;0.50;;
64550;SDS011;50945;44.472;-123.352;2023-08-07T04:46:09;0.70;;;0.70;;
64550;SDS011;50945;44.472;-123.352;2023-08-07T04:48:37;0.32;;;0.32;;
64550;SDS011;50945;44.472;-123.352;2023-08-07T04:51:03;0.75;;;0.40;;
64550;SDS011;50945;44.472;-123.352;2023-08-07T04:55:55;0.60;;;0.60;;
64550;SDS011;50945;44.472;-123.352;2023-08-07T04:58:21;0.55;;;0.55;;
64550;SDS011;50945;44.472;-123.352;2023-08-07T05:00:47;0.60;;;0.60;;
64550;SDS011;50945;44.472;-123.352;2023-08-07T05:03:13;0.75;;;0.47;;
64550;SDS011;50945;44.472;-123.352;2023-08-07T05:05:40;0.57;;;0.50;;
64550;SDS011;50945;44.472;-123.352;2023-08-07T05:08:07;0.60;;;0.60;;
64550;SDS011;50945;44.472;-123.352;2023-08-07T05:10:33;0.50;;;0.50;;
64550;SDS011;50945;44.472;-123.352;2023-08-07T05:12:59;0.43;;;0.43;;
64550;SDS011;50945;44.472;-123.352;2023-08-07T05:15:25;0.50;;;0.50;;
64550;SDS011;50945;44.472;-123.352;2023-08-07T05:17:53;2.63;;;0.70;;
64550;SDS011;50945;44.472;-123.352;2023-08-07T05:20:19;1.15;;;0.63;;
64550;SDS011;50945;44.472;-123.352;2023-08-07T05:22:46;0.75;;;0.75;;
64550;SDS011;50945;44.472;-123.352;2023-08-07T05:25:12;1.55;;;0.70;;
64550;SDS011;50945;44.472;-123.352;2023-08-07T05:27:44;1.35;;;0.30;;
64550;SDS011;50945;44.472;-123.352;2023-08-07T05:30:11;0.63;;;0.63;;
64550;SDS011;50945;44.472;-123.352;2023-08-07T05:32:37;1.38;;;0.50;;
64550;SDS011;50945;44.472;-123.352;2023-08-07T05:35:07;0.50;;;0.50;;
64550;SDS011;50945;44.472;-123.352;2023-08-07T05:37:34;0.65;;;0.57;;
64550;SDS011;50945;44.472;-123.352;2023-08-07T05:40:01;3.03;;;0.68;;
64550;SDS011;50945;44.472;-123.352;2023-08-07T05:42:27;0.80;;;0.50;;
64550;SDS011;50945;44.472;-123.352;2023-08-07T05:44:54;1.30;;;0.55;;
64550;SDS011;50945;44.472;-123.352;2023-08-07T05:47:20;0.88;;;0.45;;
64550;SDS011;50945;44.472;-123.352;2023-08-07T05:49:46;0.85;;;0.70;;
64550;SDS011;50945;44.472;-123.352;2023-08-07T05:52:13;0.52;;;0.52;;
64550;SDS011;50945;44.472;-123.352;2023-08-07T05:54:40;0.40;;;0.40;;
64550;SDS011;50945;44.472;-123.352;2023-08-07T05:57:06;0.60;;;0.60;;
64550;SDS011;50945;44.472;-123.352;2023-08-07T05:59:32;0.57;;;0.57;;
64550;SDS011;50945;44.472;-123.352;2023-08-07T06:02:00;0.73;;;0.60;;
64550;SDS011;50945;44.472;-123.352;2023-08-07T06:04:26;1.33;;;0.90;;
64550;SDS011;50945;44.472;-123.352;2023-08-07T06:06:52;0.55;;;0.52;;
64550;SDS011;50945;44.472;-123.352;2023-08-07T06:09:18;2.63;;;0.43;;
64550;SDS011;50945;44.472;-123.352;2023-08-07T06:11:45;0.50;;;0.50;;
64550;SDS011;50945;44.472;-123.352;2023-08-07T06:14:11;0.60;;;0.60;;
64550;SDS011;50945;44.472;-123.352;2023-08-07T06:16:38;1.80;;;0.75;;
64550;SDS011;50945;44.472;-123.352;2023-08-07T06:19:04;0.57;;;0.52;;
64550;SDS011;50945;44.472;-123.352;2023-08-07T06:21:30;0.80;;;0.80;;
64550;SDS011;50945;44.472;-123.352;2023-08-07T06:23:56;0.65;;;0.65;;
64550;SDS011;50945;44.472;-123.352;2023-08-07T06:26:22;1.00;;;0.82;;
64550;SDS011;50945;44.472;-123.352;2023-08-07T06:28:48;1.33;;;0.55;;
64550;SDS011;50945;44.472;-123.352;2023-08-07T06:31:15;1.00;;;0.50;;
64550;SDS011;50945;44.472;-123.352;2023-08-07T06:33:42;1.25;;;0.70;;
64550;SDS011;50945;44.472;-123.352;2023-08-07T06:36:08;0.40;;;0.40;;
64550;SDS011;50945;44.472;-123.352;2023-08-07T06:38:34;1.35;;;0.60;;
64550;SDS011;50945;44.472;-123.352;2023-08-07T06:43:26;2.40;;;0.80;;
64550;SDS011;50945;44.472;-123.352;2023-08-07T06:45:53;1.15;;;0.60;;
64550;SDS011;50945;44.472;-123.352;2023-08-07T06:48:20;1.00;;;0.80;;
64550;SDS011;50945;44.472;-123.352;2023-08-07T06:50:47;0.93;;;0.93;;
64550;SDS011;50945;44.472;-123.352;2023-08-07T06:53:13;0.50;;;0.50;;
64550;SDS011;50945;44.472;-123.352;2023-08-07T06:55:42;11.00;;;1.70;;
64550;SDS011;50945;44.472;-123.352;2023-08-07T06:58:09;1.33;;;0.60;;
64550;SDS011;50945;44.472;-123.352;2023-08-07T07:00:35;0.60;;;0.60;;
64550;SDS011;50945;44.472;-123.352;2023-08-07T07:03:02;0.93;;;0.82;;
64550;SDS011;50945;44.472;-123.352;2023-08-07T07:05:29;1.70;;;1.08;;
64550;SDS011;50945;44.472;-123.352;2023-08-07T07:07:56;0.60;;;0.60;;
64550;SDS011;50945;44.472;-123.352;2023-08-07T07:10:23;0.70;;;0.70;;
64550;SDS011;50945;44.472;-123.352;2023-08-07T07:12:49;0.50;;;0.50;;
64550;SDS011;50945;44.472;-123.352;2023-08-07T07:15:15;0.82;;;0.82;;
64550;SDS011;50945;44.472;-123.352;2023-08-07T07:20:07;0.90;;;0.90;;
64550;SDS011;50945;44.472;-123.352;2023-08-07T07:22:36;0.70;;;0.70;;
64550;SDS011;50945;44.472;-123.352;2023-08-07T07:25:03;0.90;;;0.90;;
64550;SDS011;50945;44.472;-123.352;2023-08-07T07:27:29;0.90;;;0.90;;
64550;SDS011;50945;44.472;-123.352;2023-08-07T07:29:56;1.40;;;0.93;;
64550;SDS011;50945;44.472;-123.352;2023-08-07T07:32:22;0.80;;;0.60;;
64550;SDS011;50945;44.472;-123.352;2023-08-07T07:34:49;0.90;;;0.90;;
64550;SDS011;50945;44.472;-123.352;2023-08-07T07:37:15;1.15;;;1.05;;
64550;SDS011;50945;44.472;-123.352;2023-08-07T07:39:42;0.80;;;0.80;;
64550;SDS011;50945;44.472;-123.352;2023-08-07T07:42:08;0.70;;;0.70;;
64550;SDS011;50945;44.472;-123.352;2023-08-07T07:44:34;0.57;;;0.57;;
64550;SDS011;50945;44.472;-123.352;2023-08-07T07:47:01;1.65;;;0.85;;
64550;SDS011;50945;44.472;-123.352;2023-08-07T07:51:53;1.90;;;0.98;;
64550;SDS011;50945;44.472;-123.352;2023-08-07T07:54:19;1.63;;;0.73;;
64550;SDS011;50945;44.472;-123.352;2023-08-07T07:56:46;1.27;;;0.60;;
64550;SDS011;50945;44.472;-123.352;2023-08-07T07:59:12;0.80;;;0.80;;
64550;SDS011;50945;44.472;-123.352;2023-08-07T08:04:05;1.27;;;0.73;;
64550;SDS011;50945;44.472;-123.352;2023-08-07T08:06:31;0.85;;;0.80;;
64550;SDS011;50945;44.472;-123.352;2023-08-07T08:08:57;1.13;;;0.80;;
64550;SDS011;50945;44.472;-123.352;2023-08-07T08:11:24;0.60;;;0.60;;
64550;SDS011;50945;44.472;-123.352;2023-08-07T08:13:51;1.67;;;0.90;;
64550;SDS011;50945;44.472;-123.352;2023-08-07T08:16:17;2.15;;;0.80;;
64550;SDS011;50945;44.472;-123.352;2023-08-07T08:18:43;0.65;;;0.65;;
64550;SDS011;50945;44.472;-123.352;2023-08-07T08:21:09;0.77;;;0.77;;
64550;SDS011;50945;44.472;-123.352;2023-08-07T08:23:35;2.25;;;0.93;;
64550;SDS011;50945;44.472;-123.352;2023-08-07T08:26:01;1.13;;;0.65;;
64550;SDS011;50945;44.472;-123.352;2023-08-07T08:28:27;0.93;;;0.93;;
64550;SDS011;50945;44.472;-123.352;2023-08-07T08:30:53;1.17;;;0.77;;
64550;SDS011;50945;44.472;-123.352;2023-08-07T08:33:20;0.85;;;0.80;;
64550;SDS011;50945;44.472;-123.352;2023-08-07T08:35:46;2.92;;;0.88;;
64550;SDS011;50945;44.472;-123.352;2023-08-07T08:38:12;1.13;;;0.57;;
64550;SDS011;50945;44.472;-123.352;2023-08-07T08:40:38;0.80;;;0.60;;
64550;SDS011;50945;44.472;-123.352;2023-08-07T08:43:05;0.47;;;0.47;;
64550;SDS011;50945;44.472;-123.352;2023-08-07T08:45:32;2.08;;;0.90;;
64550;SDS011;50945;44.472;-123.352;2023-08-07T08:48:01;1.33;;;0.93;;
64550;SDS011;50945;44.472;-123.352;2023-08-07T08:50:29;1.50;;;0.90;;
64550;SDS011;50945;44.472;-123.352;2023-08-07T08:52:56;1.08;;;0.60;;
64550;SDS011;50945;44.472;-123.352;2023-08-07T08:57:48;0.85;;;0.68;;
64550;SDS011;50945;44.472;-123.352;2023-08-07T09:00:15;0.73;;;0.73;;
64550;SDS011;50945;44.472;-123.352;2023-08-07T09:02:49;1.33;;;0.73;;
64550;SDS011;50945;44.472;-123.352;2023-08-07T09:05:16;0.82;;;0.80;;
64550;SDS011;50945;44.472;-123.352;2023-08-07T09:07:45;1.08;;;0.70;;
64550;SDS011;50945;44.472;-123.352;2023-08-07T09:10:15;1.08;;;0.85;;
64550;SDS011;50945;44.472;-123.352;2023-08-07T09:12:49;2.25;;;1.10;;
64550;SDS011;50945;44.472;-123.352;2023-08-07T09:15:29;0.80;;;0.80;;
64550;SDS011;50945;44.472;-123.352;2023-08-07T09:17:59;1.25;;;1.10;;
64550;SDS011;50945;44.472;-123.352;2023-08-07T09:20:30;2.78;;;1.13;;
64550;SDS011;50945;44.472;-123.352;2023-08-07T09:25:31;3.05;;;1.00;;
64550;SDS011;50945;44.472;-123.352;2023-08-07T09:28:02;1.13;;;1.02;;
64550;SDS011;50945;44.472;-123.352;2023-08-07T09:30:32;2.75;;;0.95;;
64550;SDS011;50945;44.472;-123.352;2023-08-07T09:33:00;1.13;;;0.80;;
64550;SDS011;50945;44.472;-123.352;2023-08-07T09:35:28;2.15;;;0.80;;
64550;SDS011;50945;44.472;-123.352;2023-08-07T09:37:59;0.95;;;0.80;;
64550;SDS011;50945;44.472;-123.352;2023-08-07T09:40:26;0.90;;;0.85;;
64550;SDS011;50945;44.472;-123.352;2023-08-07T09:42:52;1.13;;;1.00;;
64550;SDS011;50945;44.472;-123.352;2023-08-07T09:45:24;0.57;;;0.55;;
64550;SDS011;50945;44.472;-123.352;2023-08-07T09:50:27;1.70;;;0.88;;
64550;SDS011;50945;44.472;-123.352;2023-08-07T09:52:54;1.17;;;1.00;;
64550;SDS011;50945;44.472;-123.352;2023-08-07T09:55:21;0.93;;;0.93;;
64550;SDS011;50945;44.472;-123.352;2023-08-07T09:57:48;1.85;;;1.20;;
64550;SDS011;50945;44.472;-123.352;2023-08-07T10:00:16;1.00;;;1.00;;
64550;SDS011;50945;44.472;-123.352;2023-08-07T10:02:50;1.05;;;0.90;;
64550;SDS011;50945;44.472;-123.352;2023-08-07T10:05:17;2.42;;;1.10;;
64550;SDS011;50945;44.472;-123.352;2023-08-07T10:07:43;1.85;;;1.17;;
64550;SDS011;50945;44.472;-123.352;2023-08-07T10:10:10;1.77;;;1.27;;
64550;SDS011;50945;44.472;-123.352;2023-08-07T10:12:37;1.67;;;0.93;;
64550;SDS011;50945;44.472;-123.352;2023-08-07T10:15:03;1.52;;;1.00;;
64550;SDS011;50945;44.472;-123.352;2023-08-07T10:17:30;2.53;;;1.40;;
64550;SDS011;50945;44.472;-123.352;2023-08-07T10:19:57;2.33;;;1.33;;
64550;SDS011;50945;44.472;-123.352;2023-08-07T10:22:24;1.10;;;1.00;;
64550;SDS011;50945;44.472;-123.352;2023-08-07T10:24:53;1.38;;;1.00;;
64550;SDS011;50945;44.472;-123.352;2023-08-07T10:27:20;0.93;;;0.93;;
64550;SDS011;50945;44.472;-123.352;2023-08-07T10:29:49;1.35;;;1.02;;
64550;SDS011;50945;44.472;-123.352;2023-08-07T10:32:17;1.42;;;1.30;;
64550;SDS011;50945;44.472;-123.352;2023-08-07T10:34:46;1.20;;;1.13;;
64550;SDS011;50945;44.472;-123.352;2023-08-07T10:40:09;0.57;;;0.57;;
64550;SDS011;50945;44.472;-123.352;2023-08-07T10:45:37;2.08;;;1.30;;
64550;SDS011;50945;44.472;-123.352;2023-08-07T10:50:33;0.98;;;0.98;;
64550;SDS011;50945;44.472;-123.352;2023-08-07T10:53:03;1.60;;;1.20;;
64550;SDS011;50945;44.472;-123.352;2023-08-07T10:55:43;1.30;;;1.20;;
64550;SDS011;50945;44.472;-123.352;2023-08-07T10:58:23;1.50;;;0.93;;
64550;SDS011;50945;44.472;-123.352;2023-08-07T11:00:51;1.15;;;1.05;;
64550;SDS011;50945;44.472;-123.352;2023-08-07T11:03:27;1.80;;;1.10;;
64550;SDS011;50945;44.472;-123.352;2023-08-07T11:05:53;1.23;;;1.17;;
64550;SDS011;50945;44.472;-123.352;2023-08-07T11:08:23;0.95;;;0.95;;
64550;SDS011;50945;44.472;-123.352;2023-08-07T11:10:53;1.40;;;1.30;;
64550;SDS011;50945;44.472;-123.352;2023-08-07T11:13:20;1.98;;;1.10;;
64550;SDS011;50945;44.472;-123.352;2023-08-07T11:15:46;1.35;;;0.85;;
64550;SDS011;50945;44.472;-123.352;2023-08-07T11:20:39;1.33;;;1.17;;
64550;SDS011;50945;44.472;-123.352;2023-08-07T11:23:05;1.23;;;0.90;;
64550;SDS011;50945;44.472;-123.352;2023-08-07T11:25:31;3.70;;;0.95;;
64550;SDS011;50945;44.472;-123.352;2023-08-07T11:27:58;2.08;;;0.90;;
64550;SDS011;50945;44.472;-123.352;2023-08-07T11:30:24;1.23;;;1.13;;
64550;SDS011;50945;44.472;-123.352;2023-08-07T11:32:50;1.13;;;1.02;;
64550;SDS011;50945;44.472;-123.352;2023-08-07T11:35:17;1.45;;;1.08;;
64550;SDS011;50945;44.472;-123.352;2023-08-07T11:37:47;1.27;;;1.20;;
64550;SDS011;50945;44.472;-123.352;2023-08-07T11:40:13;2.15;;;1.23;;
64550;SDS011;50945;44.472;-123.352;2023-08-07T11:42:42;4.93;;;1.27;;
64550;SDS011;50945;44.472;-123.352;2023-08-07T11:45:08;1.00;;;0.98;;
64550;SDS011;50945;44.472;-123.352;2023-08-07T11:47:35;1.85;;;0.93;;
64550;SDS011;50945;44.472;-123.352;2023-08-07T11:50:01;2.33;;;1.20;;
64550;SDS011;50945;44.472;-123.352;2023-08-07T11:52:28;1.30;;;1.00;;
64550;SDS011;50945;44.472;-123.352;2023-08-07T11:54:54;2.95;;;1.17;;
64550;SDS011;50945;44.472;-123.352;2023-08-07T11:57:20;2.63;;;0.93;;
64550;SDS011;50945;44.472;-123.352;2023-08-07T11:59:49;4.50;;;1.30;;
64550;SDS011;50945;44.472;-123.352;2023-08-07T12:02:16;8.43;;;1.67;;
64550;SDS011;50945;44.472;-123.352;2023-08-07T12:04:42;3.88;;;1.23;;
64550;SDS011;50945;44.472;-123.352;2023-08-07T12:07:09;1.38;;;1.30;;
64550;SDS011;50945;44.472;-123.352;2023-08-07T12:09:36;0.98;;;0.98;;
64550;SDS011;50945;44.472;-123.352;2023-08-07T12:12:03;1.42;;;1.33;;
64550;SDS011;50945;44.472;-123.352;2023-08-07T12:14:31;1.30;;;0.93;;
64550;SDS011;50945;44.472;-123.352;2023-08-07T12:16:57;2.85;;;1.02;;
64550;SDS011;50945;44.472;-123.352;2023-08-07T12:19:23;1.40;;;1.30;;
64550;SDS011;50945;44.472;-123.352;2023-08-07T12:21:49;1.00;;;1.00;;
64550;SDS011;50945;44.472;-123.352;2023-08-07T12:24:15;2.95;;;1.27;;
64550;SDS011;50945;44.472;-123.352;2023-08-07T12:26:43;1.02;;;0.93;;
64550;SDS011;50945;44.472;-123.352;2023-08-07T12:29:09;2.70;;;1.08;;
64550;SDS011;50945;44.472;-123.352;2023-08-07T12:31:35;1.10;;;0.80;;
64550;SDS011;50945;44.472;-123.352;2023-08-07T12:34:01;1.45;;;1.33;;
64550;SDS011;50945;44.472;-123.352;2023-08-07T12:36:27;3.15;;;1.58;;
64550;SDS011;50945;44.472;-123.352;2023-08-07T12:38:54;1.27;;;0.93;;
64550;SDS011;50945;44.472;-123.352;2023-08-07T12:41:20;1.40;;;1.20;;
64550;SDS011;50945;44.472;-123.352;2023-08-07T12:43:46;1.42;;;1.02;;
64550;SDS011;50945;44.472;-123.352;2023-08-07T12:46:12;1.20;;;1.10;;
64550;SDS011;50945;44.472;-123.352;2023-08-07T12:48:38;1.73;;;1.05;;
64550;SDS011;50945;44.472;-123.352;2023-08-07T12:51:04;1.50;;;1.10;;
64550;SDS011;50945;44.472;-123.352;2023-08-07T12:53:30;1.40;;;1.30;;
64550;SDS011;50945;44.472;-123.352;2023-08-07T12:58:22;1.40;;;1.30;;
64550;SDS011;50945;44.472;-123.352;2023-08-07T13:00:51;0.90;;;0.90;;
64550;SDS011;50945;44.472;-123.352;2023-08-07T13:03:17;1.33;;;1.23;;
64550;SDS011;50945;44.472;-123.352;2023-08-07T13:05:43;1.17;;;1.08;;
64550;SDS011;50945;44.472;-123.352;2023-08-07T13:08:09;1.85;;;1.05;;
64550;SDS011;50945;44.472;-123.352;2023-08-07T13:10:35;1.35;;;1.25;;
64550;SDS011;50945;44.472;-123.352;2023-08-07T13:13:02;1.75;;;1.10;;
64550;SDS011;50945;44.472;-123.352;2023-08-07T13:15:30;1.80;;;1.23;;
64550;SDS011;50945;44.472;-123.352;2023-08-07T13:17:56;1.20;;;1.08;;
64550;SDS011;50945;44.472;-123.352;2023-08-07T13:20:22;2.45;;;1.00;;
64550;SDS011;50945;44.472;-123.352;2023-08-07T13:22:48;2.22;;;1.30;;
64550;SDS011;50945;44.472;-123.352;2023-08-07T13:25:14;1.92;;;1.10;;
64550;SDS011;50945;44.472;-123.352;2023-08-07T13:27:41;1.58;;;1.20;;
64550;SDS011;50945;44.472;-123.352;2023-08-07T13:30:07;2.13;;;1.30;;
64550;SDS011;50945;44.472;-123.352;2023-08-07T13:32:34;3.95;;;1.30;;
64550;SDS011;50945;44.472;-123.352;2023-08-07T13:35:01;1.25;;;1.17;;
64550;SDS011;50945;44.472;-123.352;2023-08-07T13:37:28;1.00;;;0.93;;
64550;SDS011;50945;44.472;-123.352;2023-08-07T13:39:54;1.58;;;1.10;;
64550;SDS011;50945;44.472;-123.352;2023-08-07T13:42:23;3.20;;;1.20;;
64550;SDS011;50945;44.472;-123.352;2023-08-07T13:44:50;1.58;;;1.05;;
64550;SDS011;50945;44.472;-123.352;2023-08-07T13:49:43;2.28;;;1.25;;
64550;SDS011;50945;44.472;-123.352;2023-08-07T13:52:09;1.33;;;1.23;;
64550;SDS011;50945;44.472;-123.352;2023-08-07T13:54:35;1.48;;;1.00;;
64550;SDS011;50945;44.472;-123.352;2023-08-07T13:57:01;1.75;;;1.25;;
64550;SDS011;50945;44.472;-123.352;2023-08-07T13:59:28;2.05;;;1.08;;
64550;SDS011;50945;44.472;-123.352;2023-08-07T14:01:54;0.80;;;0.80;;
64550;SDS011;50945;44.472;-123.352;2023-08-07T14:04:21;2.05;;;0.90;;
64550;SDS011;50945;44.472;-123.352;2023-08-07T14:09:13;1.73;;;1.30;;
64550;SDS011;50945;44.472;-123.352;2023-08-07T14:11:39;2.17;;;1.50;;
64550;SDS011;50945;44.472;-123.352;2023-08-07T14:14:05;1.10;;;1.10;;
64550;SDS011;50945;44.472;-123.352;2023-08-07T14:16:32;0.90;;;0.90;;
64550;SDS011;50945;44.472;-123.352;2023-08-07T14:18:58;1.08;;;1.00;;
64550;SDS011;50945;44.472;-123.352;2023-08-07T14:21:24;1.05;;;1.05;;
64550;SDS011;50945;44.472;-123.352;2023-08-07T14:23:50;3.90;;;1.02;;
64550;SDS011;50945;44.472;-123.352;2023-08-07T14:26:16;2.15;;;1.10;;
64550;SDS011;50945;44.472;-123.352;2023-08-07T14:28:43;2.42;;;1.15;;
64550;SDS011;50945;44.472;-123.352;2023-08-07T14:31:10;1.35;;;1.20;;
64550;SDS011;50945;44.472;-123.352;2023-08-07T14:33:36;0.98;;;0.90;;
64550;SDS011;50945;44.472;-123.352;2023-08-07T14:36:03;1.00;;;1.00;;
64550;SDS011;50945;44.472;-123.352;2023-08-07T14:38:30;1.15;;;1.05;;
64550;SDS011;50945;44.472;-123.352;2023-08-07T14:40:56;2.67;;;1.40;;
64550;SDS011;50945;44.472;-123.352;2023-08-07T14:43:24;2.25;;;1.13;;
64550;SDS011;50945;44.472;-123.352;2023-08-07T14:45:54;2.10;;;1.17;;
64550;SDS011;50945;44.472;-123.352;2023-08-07T14:48:20;1.48;;;0.98;;
64550;SDS011;50945;44.472;-123.352;2023-08-07T14:50:46;1.70;;;1.17;;
64550;SDS011;50945;44.472;-123.352;2023-08-07T14:53:12;4.13;;;1.52;;
64550;SDS011;50945;44.472;-123.352;2023-08-07T14:55:38;4.70;;;1.38;;
64550;SDS011;50945;44.472;-123.352;2023-08-07T14:58:05;1.50;;;1.40;;
64550;SDS011;50945;44.472;-123.352;2023-08-07T15:00:31;2.47;;;1.33;;
64550;SDS011;50945;44.472;-123.352;2023-08-07T15:02:57;3.42;;;1.15;;
64550;SDS011;50945;44.472;-123.352;2023-08-07T15:05:23;3.65;;;1.30;;
64550;SDS011;50945;44.472;-123.352;2023-08-07T15:07:49;1.60;;;0.85;;
64550;SDS011;50945;44.472;-123.352;2023-08-07T15:10:15;1.30;;;1.05;;
64550;SDS011;50945;44.472;-123.352;2023-08-07T15:12:42;3.20;;;1.95;;
64550;SDS011;50945;44.472;-123.352;2023-08-07T15:15:08;2.00;;;1.13;;
64550;SDS011;50945;44.472;-123.352;2023-08-07T15:17:35;1.73;;;1.15;;
64550;SDS011;50945;44.472;-123.352;2023-08-07T15:20:01;1.83;;;0.98;;
64550;SDS011;50945;44.472;-123.352;2023-08-07T15:22:28;5.15;;;1.20;;
64550;SDS011;50945;44.472;-123.352;2023-08-07T15:24:54;1.90;;;1.67;;
64550;SDS011;50945;44.472;-123.352;2023-08-07T15:27:20;1.17;;;0.85;;
64550;SDS011;50945;44.472;-123.352;2023-08-07T15:29:46;2.35;;;1.20;;